sensor_id;sensor_type;location;lat;lon;timestamp;pressure;altitude;pressure_sealevel;temperature;humidity
55757;BME280;41676;44.610;44.078;2023-02-13T00:02:44;100667.66;;;-3.55;79.58
55757;BME280;41676;44.610;44.078;2023-02-13T00:07:45;100676.03;;;-3.69;79.87
55757;BME280;41676;44.610;44.078;2023-02-13T00:12:46;100641.50;;;-3.90;79.70
55757;BME280;41676;44.610;44.078;2023-02-13T00:17:46;100679.28;;;-3.63;80.06
55757;BME280;41676;44.610;44.078;2023-02-13T00:22:47;100675.56;;;-3.58;80.00
55757;BME280;41676;44.610;44.078;2023-02-13T00:27:50;100584.59;;;-4.13;79.47
55757;BME280;41676;44.610;44.078;2023-02-13T00:32:51;100644.63;;;-3.81;79.29
55757;BME280;41676;44.610;44.078;2023-02-13T00:37:52;100664.81;;;-3.69;79.78
55757;BME280;41676;44.610;44.078;2023-02-13T00:42:52;100649.47;;;-3.74;79.82
55757;BME280;41676;44.610;44.078;2023-02-13T00:47:53;100672.56;;;-3.49;80.16
55757;BME280;41676;44.610;44.078;2023-02-13T00:52:54;100636.53;;;-3.56;79.81
55757;BME280;41676;44.610;44.078;2023-02-13T00:57:55;100661.59;;;-3.36;80.02
55757;BME280;41676;44.610;44.078;2023-02-13T01:02:56;100643.50;;;-3.38;79.46
55757;BME280;41676;44.610;44.078;2023-02-13T01:07:56;100678.03;;;-3.36;79.72
55757;BME280;41676;44.610;44.078;2023-02-13T01:12:57;100711.72;;;-3.34;80.24
55757;BME280;41676;44.610;44.078;2023-02-13T01:17:58;100745.84;;;-3.42;80.26
55757;BME280;41676;44.610;44.078;2023-02-13T01:23:00;100707.81;;;-3.43;80.71
55757;BME280;41676;44.610;44.078;2023-02-13T01:28:01;100737.19;;;-3.24;80.89
55757;BME280;41676;44.610;44.078;2023-02-13T01:33:01;100713.69;;;-3.21;80.72
55757;BME280;41676;44.610;44.078;2023-02-13T01:38:02;100720.84;;;-3.07;80.46
55757;BME280;41676;44.610;44.078;2023-02-13T01:43:07;100726.88;;;-3.06;80.76
55757;BME280;41676;44.610;44.078;2023-02-13T01:48:26;100737.34;;;-3.08;82.25
55757;BME280;41676;44.610;44.078;2023-02-13T01:53:47;100669.19;;;-3.70;81.75
55757;BME280;41676;44.610;44.078;2023-02-13T01:58:51;100705.38;;;-3.67;81.41
55757;BME280;41676;44.610;44.078;2023-02-13T02:03:59;100661.28;;;-4.06;81.99
55757;BME280;41676;44.610;44.078;2023-02-13T02:09:06;100753.19;;;-3.52;81.33
55757;BME280;41676;44.610;44.078;2023-02-13T02:14:08;100756.78;;;-3.54;81.52
55757;BME280;41676;44.610;44.078;2023-02-13T02:19:41;100753.44;;;-3.37;82.10
55757;BME280;41676;44.610;44.078;2023-02-13T02:25:03;100668.91;;;-3.82;82.30
55757;BME280;41676;44.610;44.078;2023-02-13T02:35:42;100679.16;;;-3.60;82.30
55757;BME280;41676;44.610;44.078;2023-02-13T02:41:06;100763.47;;;-2.92;82.85
55757;BME280;41676;44.610;44.078;2023-02-13T02:46:15;100757.25;;;-2.70;82.59
55757;BME280;41676;44.610;44.078;2023-02-13T02:56:39;100668.81;;;-2.88;83.42
55757;BME280;41676;44.610;44.078;2023-02-13T03:01:42;100757.47;;;-2.21;84.15
55757;BME280;41676;44.610;44.078;2023-02-13T03:07:06;100757.19;;;-2.15;85.59
55757;BME280;41676;44.610;44.078;2023-02-13T03:12:10;100701.16;;;-2.57;85.63
55757;BME280;41676;44.610;44.078;2023-02-13T03:17:32;100788.84;;;-1.90;86.56
55757;BME280;41676;44.610;44.078;2023-02-13T03:23:14;100781.88;;;-1.72;91.06
55757;BME280;41676;44.610;44.078;2023-02-13T03:34:14;100781.69;;;-1.51;89.74
55757;BME280;41676;44.610;44.078;2023-02-13T03:44:53;100794.56;;;-1.32;91.55
55757;BME280;41676;44.610;44.078;2023-02-13T03:50:15;100768.00;;;-1.39;89.36
55757;BME280;41676;44.610;44.078;2023-02-13T04:00:44;100785.00;;;-1.32;90.98
55757;BME280;41676;44.610;44.078;2023-02-13T04:05:50;100738.88;;;-1.63;91.88
55757;BME280;41676;44.610;44.078;2023-02-13T04:10:58;100799.72;;;-1.31;91.83
55757;BME280;41676;44.610;44.078;2023-02-13T04:16:09;100794.06;;;-1.39;92.90
55757;BME280;41676;44.610;44.078;2023-02-13T04:21:12;100828.59;;;-1.18;92.05
55757;BME280;41676;44.610;44.078;2023-02-13T04:26:22;100823.75;;;-1.26;93.66
55757;BME280;41676;44.610;44.078;2023-02-13T04:31:24;100773.13;;;-1.71;92.17
55757;BME280;41676;44.610;44.078;2023-02-13T04:36:24;100783.78;;;-1.58;92.37
55757;BME280;41676;44.610;44.078;2023-02-13T04:41:25;100859.00;;;-1.34;93.08
55757;BME280;41676;44.610;44.078;2023-02-13T04:46:27;100812.91;;;-2.02;93.59
55757;BME280;41676;44.610;44.078;2023-02-13T04:51:28;100915.09;;;-1.79;93.70
55757;BME280;41676;44.610;44.078;2023-02-13T04:56:29;100882.16;;;-2.17;94.19
55757;BME280;41676;44.610;44.078;2023-02-13T05:01:30;100873.84;;;-2.61;94.47
55757;BME280;41676;44.610;44.078;2023-02-13T05:06:31;100791.91;;;-3.27;94.63
55757;BME280;41676;44.610;44.078;2023-02-13T05:11:31;100949.28;;;-2.42;94.74
55757;BME280;41676;44.610;44.078;2023-02-13T05:16:32;100922.47;;;-2.63;94.89
55757;BME280;41676;44.610;44.078;2023-02-13T05:21:33;100800.53;;;-3.45;94.90
55757;BME280;41676;44.610;44.078;2023-02-13T05:26:52;100880.34;;;-3.09;94.50
55757;BME280;41676;44.610;44.078;2023-02-13T05:31:55;100969.28;;;-2.63;94.64
55757;BME280;41676;44.610;44.078;2023-02-13T05:36:56;100966.00;;;-2.67;94.66
55757;BME280;41676;44.610;44.078;2023-02-13T05:41:57;100987.16;;;-2.74;94.47
55757;BME280;41676;44.610;44.078;2023-02-13T05:46:58;100990.50;;;-2.72;94.72
55757;BME280;41676;44.610;44.078;2023-02-13T05:51:59;101002.28;;;-2.64;94.19
55757;BME280;41676;44.610;44.078;2023-02-13T05:57:00;101007.00;;;-2.72;94.96
55757;BME280;41676;44.610;44.078;2023-02-13T06:02:01;100999.78;;;-2.86;96.31
55757;BME280;41676;44.610;44.078;2023-02-13T06:07:02;101002.94;;;-3.00;95.96
55757;BME280;41676;44.610;44.078;2023-02-13T06:12:02;101045.28;;;-2.96;97.16
55757;BME280;41676;44.610;44.078;2023-02-13T06:17:03;101047.88;;;-2.96;97.42
55757;BME280;41676;44.610;44.078;2023-02-13T06:22:04;101040.31;;;-3.02;97.46
55757;BME280;41676;44.610;44.078;2023-02-13T06:27:05;100981.31;;;-3.41;97.51
55757;BME280;41676;44.610;44.078;2023-02-13T06:32:05;101074.06;;;-2.80;96.88
55757;BME280;41676;44.610;44.078;2023-02-13T06:37:06;101035.38;;;-2.88;96.23
55757;BME280;41676;44.610;44.078;2023-02-13T06:42:07;101066.19;;;-2.58;96.01
55757;BME280;41676;44.610;44.078;2023-02-13T06:47:08;101020.13;;;-2.75;95.32
55757;BME280;41676;44.610;44.078;2023-02-13T06:52:09;101079.44;;;-2.23;94.45
55757;BME280;41676;44.610;44.078;2023-02-13T06:57:09;101055.44;;;-2.30;94.21
55757;BME280;41676;44.610;44.078;2023-02-13T07:02:11;101021.81;;;-2.35;93.58
55757;BME280;41676;44.610;44.078;2023-02-13T07:07:12;101058.97;;;-1.93;92.67
55757;BME280;41676;44.610;44.078;2023-02-13T07:12:13;101101.75;;;-1.61;90.98
55757;BME280;41676;44.610;44.078;2023-02-13T07:17:13;101102.16;;;-1.51;89.79
55757;BME280;41676;44.610;44.078;2023-02-13T07:22:14;101130.06;;;-1.34;89.59
55757;BME280;41676;44.610;44.078;2023-02-13T07:27:15;100989.97;;;-2.21;89.05
55757;BME280;41676;44.610;44.078;2023-02-13T07:32:16;101139.84;;;-1.40;87.95
55757;BME280;41676;44.610;44.078;2023-02-13T07:37:16;101140.59;;;-1.19;88.30
55757;BME280;41676;44.610;44.078;2023-02-13T07:42:17;101139.41;;;-1.30;86.36
55757;BME280;41676;44.610;44.078;2023-02-13T07:47:18;101139.91;;;-1.22;85.89
55757;BME280;41676;44.610;44.078;2023-02-13T07:52:18;101136.63;;;-0.91;84.37
55757;BME280;41676;44.610;44.078;2023-02-13T07:57:19;101145.03;;;-0.67;83.28
55757;BME280;41676;44.610;44.078;2023-02-13T08:02:20;101103.69;;;-0.75;82.57
55757;BME280;41676;44.610;44.078;2023-02-13T08:07:21;101166.91;;;-0.35;81.34
55757;BME280;41676;44.610;44.078;2023-02-13T08:12:22;101176.41;;;-0.34;79.42
55757;BME280;41676;44.610;44.078;2023-02-13T08:17:22;101187.22;;;-0.24;79.54
55757;BME280;41676;44.610;44.078;2023-02-13T08:22:23;101099.28;;;-0.57;78.56
55757;BME280;41676;44.610;44.078;2023-02-13T08:27:24;101092.00;;;-0.50;77.77
55757;BME280;41676;44.610;44.078;2023-02-13T08:32:25;101186.41;;;0.09;77.75
55757;BME280;41676;44.610;44.078;2023-02-13T08:37:26;101126.13;;;-0.37;77.17
55757;BME280;41676;44.610;44.078;2023-02-13T08:42:26;101194.19;;;0.10;77.24
55757;BME280;41676;44.610;44.078;2023-02-13T08:47:27;101192.88;;;0.19;77.22
55757;BME280;41676;44.610;44.078;2023-02-13T08:52:28;101183.31;;;0.18;75.90
55757;BME280;41676;44.610;44.078;2023-02-13T08:57:29;101193.28;;;-0.06;75.41
55757;BME280;41676;44.610;44.078;2023-02-13T09:02:30;101191.84;;;-0.12;75.79
55757;BME280;41676;44.610;44.078;2023-02-13T09:07:31;101108.97;;;-0.59;75.22
55757;BME280;41676;44.610;44.078;2023-02-13T09:12:32;101165.34;;;-0.21;75.24
55757;BME280;41676;44.610;44.078;2023-02-13T09:17:32;101162.66;;;-0.20;73.87
55757;BME280;41676;44.610;44.078;2023-02-13T09:22:33;101177.75;;;0.08;73.25
55757;BME280;41676;44.610;44.078;2023-02-13T09:27:35;101177.25;;;-0.16;72.05
55757;BME280;41676;44.610;44.078;2023-02-13T09:32:36;101186.06;;;-0.18;72.32
55757;BME280;41676;44.610;44.078;2023-02-13T09:37:37;101202.97;;;0.09;72.26
55757;BME280;41676;44.610;44.078;2023-02-13T09:42:38;101149.97;;;-0.10;71.98
55757;BME280;41676;44.610;44.078;2023-02-13T09:47:42;101188.16;;;0.41;71.65
55757;BME280;41676;44.610;44.078;2023-02-13T09:52:44;101200.53;;;0.87;71.55
55757;BME280;41676;44.610;44.078;2023-02-13T09:58:01;101126.53;;;0.21;69.44
55757;BME280;41676;44.610;44.078;2023-02-13T10:14:16;101141.56;;;0.34;69.49
55757;BME280;41676;44.610;44.078;2023-02-13T10:19:39;101140.31;;;0.73;68.71
55757;BME280;41676;44.610;44.078;2023-02-13T10:24:54;101209.47;;;1.14;67.93
55757;BME280;41676;44.610;44.078;2023-02-13T10:30:07;101101.19;;;0.39;67.70
55757;BME280;41676;44.610;44.078;2023-02-13T10:35:28;101221.50;;;1.33;67.46
55757;BME280;41676;44.610;44.078;2023-02-13T10:40:38;101210.31;;;1.15;66.90
55757;BME280;41676;44.610;44.078;2023-02-13T10:46:01;101171.81;;;1.01;65.31
55757;BME280;41676;44.610;44.078;2023-02-13T10:51:27;101126.03;;;0.47;66.83
55757;BME280;41676;44.610;44.078;2023-02-13T10:56:35;101192.78;;;0.70;67.30
55757;BME280;41676;44.610;44.078;2023-02-13T11:01:56;101222.03;;;0.92;67.42
55757;BME280;41676;44.610;44.078;2023-02-13T11:07:03;101193.38;;;0.90;66.65
55757;BME280;41676;44.610;44.078;2023-02-13T11:12:28;101209.53;;;1.13;65.75
55757;BME280;41676;44.610;44.078;2023-02-13T11:17:32;101156.50;;;0.79;65.89
55757;BME280;41676;44.610;44.078;2023-02-13T11:22:37;101077.06;;;0.34;66.10
55757;BME280;41676;44.610;44.078;2023-02-13T11:27:39;101129.22;;;0.83;66.47
55757;BME280;41676;44.610;44.078;2023-02-13T11:32:40;101227.50;;;1.35;66.39
55757;BME280;41676;44.610;44.078;2023-02-13T11:37:41;101177.16;;;1.00;65.71
55757;BME280;41676;44.610;44.078;2023-02-13T11:42:42;101144.59;;;0.58;65.93
55757;BME280;41676;44.610;44.078;2023-02-13T11:47:44;101232.66;;;0.89;65.44
55757;BME280;41676;44.610;44.078;2023-02-13T11:58:03;101247.19;;;1.72;63.29
55757;BME280;41676;44.610;44.078;2023-02-13T12:03:29;101254.41;;;2.13;62.55
55757;BME280;41676;44.610;44.078;2023-02-13T12:08:33;101259.47;;;1.56;64.02
55757;BME280;41676;44.610;44.078;2023-02-13T12:13:37;101263.41;;;1.17;64.10
55757;BME280;41676;44.610;44.078;2023-02-13T12:18:44;101256.66;;;0.81;64.94
55757;BME280;41676;44.610;44.078;2023-02-13T12:23:56;101274.28;;;0.44;65.66
55757;BME280;41676;44.610;44.078;2023-02-13T12:29:33;101269.00;;;0.29;65.82
55757;BME280;41676;44.610;44.078;2023-02-13T12:45:40;101271.41;;;-0.02;66.36
55757;BME280;41676;44.610;44.078;2023-02-13T12:51:08;101210.97;;;-0.29;67.52
55757;BME280;41676;44.610;44.078;2023-02-13T13:01:46;101291.84;;;0.08;67.49
55757;BME280;41676;44.610;44.078;2023-02-13T13:12:14;101198.47;;;-0.57;69.09
55757;BME280;41676;44.610;44.078;2023-02-13T13:23:15;101289.81;;;-0.76;69.58
55757;BME280;41676;44.610;44.078;2023-02-13T13:28:21;101254.25;;;-1.33;69.60
55757;BME280;41676;44.610;44.078;2023-02-13T13:33:24;101282.50;;;-1.24;70.35
55757;BME280;41676;44.610;44.078;2023-02-13T13:38:41;101192.88;;;-1.99;70.15
55757;BME280;41676;44.610;44.078;2023-02-13T13:54:33;101190.91;;;-2.33;70.55
55757;BME280;41676;44.610;44.078;2023-02-13T14:04:39;101262.41;;;-2.43;71.54
55757;BME280;41676;44.610;44.078;2023-02-13T14:09:43;101268.91;;;-2.54;71.57
55757;BME280;41676;44.610;44.078;2023-02-13T14:14:44;101292.47;;;-2.57;72.19
55757;BME280;41676;44.610;44.078;2023-02-13T14:19:50;101220.66;;;-3.05;72.48
55757;BME280;41676;44.610;44.078;2023-02-13T14:25:06;101294.75;;;-2.71;72.82
55757;BME280;41676;44.610;44.078;2023-02-13T14:30:29;101280.50;;;-3.06;73.04
55757;BME280;41676;44.610;44.078;2023-02-13T14:35:34;101296.53;;;-3.18;72.93
55757;BME280;41676;44.610;44.078;2023-02-13T14:40:48;101312.81;;;-3.13;73.96
55757;BME280;41676;44.610;44.078;2023-02-13T14:50:56;101234.91;;;-3.85;73.85
55757;BME280;41676;44.610;44.078;2023-02-13T14:56:06;101298.56;;;-3.50;73.83
55757;BME280;41676;44.610;44.078;2023-02-13T15:01:30;101330.44;;;-3.22;73.63
55757;BME280;41676;44.610;44.078;2023-02-13T15:06:35;101344.66;;;-3.08;72.74
55757;BME280;41676;44.610;44.078;2023-02-13T15:11:40;101346.97;;;-2.99;72.16
55757;BME280;41676;44.610;44.078;2023-02-13T15:16:42;101349.75;;;-2.82;72.01
55757;BME280;41676;44.610;44.078;2023-02-13T15:21:53;101348.19;;;-2.86;71.64
55757;BME280;41676;44.610;44.078;2023-02-13T15:27:01;101334.38;;;-2.88;71.69
55757;BME280;41676;44.610;44.078;2023-02-13T15:32:17;101372.19;;;-2.79;72.05
55757;BME280;41676;44.610;44.078;2023-02-13T15:37:22;101271.03;;;-3.31;71.88
55757;BME280;41676;44.610;44.078;2023-02-13T15:42:24;101362.63;;;-2.79;71.58
55757;BME280;41676;44.610;44.078;2023-02-13T15:47:29;101358.34;;;-2.80;72.13
55757;BME280;41676;44.610;44.078;2023-02-13T15:52:33;101360.97;;;-2.80;71.73
55757;BME280;41676;44.610;44.078;2023-02-13T15:57:36;101359.19;;;-2.79;71.86
55757;BME280;41676;44.610;44.078;2023-02-13T16:02:45;101329.19;;;-2.88;72.65
55757;BME280;41676;44.610;44.078;2023-02-13T16:07:54;101342.03;;;-2.83;72.16
55757;BME280;41676;44.610;44.078;2023-02-13T16:12:56;101328.94;;;-2.82;72.58
55757;BME280;41676;44.610;44.078;2023-02-13T16:17:58;101321.22;;;-2.83;73.55
55757;BME280;41676;44.610;44.078;2023-02-13T16:23:14;101348.31;;;-2.67;73.68
55757;BME280;41676;44.610;44.078;2023-02-13T16:28:17;101343.84;;;-2.63;73.70
55757;BME280;41676;44.610;44.078;2023-02-13T16:33:36;101320.16;;;-2.78;73.39
55757;BME280;41676;44.610;44.078;2023-02-13T16:38:45;101271.13;;;-3.10;73.96
55757;BME280;41676;44.610;44.078;2023-02-13T16:44:00;101344.72;;;-2.63;74.25
55757;BME280;41676;44.610;44.078;2023-02-13T17:04:22;101359.28;;;-2.59;74.21
55757;BME280;41676;44.610;44.078;2023-02-13T17:09:24;101292.19;;;-2.94;74.14
55757;BME280;41676;44.610;44.078;2023-02-13T17:14:25;101365.41;;;-2.60;74.58
55757;BME280;41676;44.610;44.078;2023-02-13T17:19:25;101328.06;;;-2.81;74.86
55757;BME280;41676;44.610;44.078;2023-02-13T17:24:26;101361.97;;;-2.60;74.84
55757;BME280;41676;44.610;44.078;2023-02-13T17:29:27;101380.00;;;-2.56;74.88
55757;BME280;41676;44.610;44.078;2023-02-13T17:34:28;101385.19;;;-2.56;75.24
55757;BME280;41676;44.610;44.078;2023-02-13T17:39:28;101237.00;;;-3.48;75.76
55757;BME280;41676;44.610;44.078;2023-02-13T17:44:30;101292.25;;;-3.19;76.12
55757;BME280;41676;44.610;44.078;2023-02-13T17:49:31;101291.31;;;-3.17;75.75
55757;BME280;41676;44.610;44.078;2023-02-13T17:54:32;101384.63;;;-2.64;76.00
55757;BME280;41676;44.610;44.078;2023-02-13T17:59:33;101409.69;;;-2.61;75.48
55757;BME280;41676;44.610;44.078;2023-02-13T18:04:33;101249.97;;;-3.72;76.07
55757;BME280;41676;44.610;44.078;2023-02-13T18:09:34;101389.44;;;-3.00;76.06
55757;BME280;41676;44.610;44.078;2023-02-13T18:14:35;101404.47;;;-3.08;75.94
55757;BME280;41676;44.610;44.078;2023-02-13T18:19:36;101404.00;;;-3.19;76.20
55757;BME280;41676;44.610;44.078;2023-02-13T18:24:40;101412.28;;;-3.33;76.58
55757;BME280;41676;44.610;44.078;2023-02-13T18:29:41;101413.41;;;-3.40;76.54
55757;BME280;41676;44.610;44.078;2023-02-13T18:34:42;101407.50;;;-3.46;76.49
55757;BME280;41676;44.610;44.078;2023-02-13T18:39:43;101395.88;;;-3.60;76.55
55757;BME280;41676;44.610;44.078;2023-02-13T18:44:43;101326.44;;;-4.05;76.85
55757;BME280;41676;44.610;44.078;2023-02-13T18:49:45;101394.34;;;-3.66;76.49
55757;BME280;41676;44.610;44.078;2023-02-13T18:54:46;101389.34;;;-3.72;76.51
55757;BME280;41676;44.610;44.078;2023-02-13T18:59:47;101384.22;;;-3.74;76.01
55757;BME280;41676;44.610;44.078;2023-02-13T19:04:48;101388.81;;;-3.82;76.18
55757;BME280;41676;44.610;44.078;2023-02-13T19:09:48;101374.72;;;-4.01;75.65
55757;BME280;41676;44.610;44.078;2023-02-13T19:14:49;101367.25;;;-4.10;75.42
55757;BME280;41676;44.610;44.078;2023-02-13T19:19:50;101376.84;;;-4.13;75.86
55757;BME280;41676;44.610;44.078;2023-02-13T19:24:51;101381.13;;;-4.11;75.90
55757;BME280;41676;44.610;44.078;2023-02-13T19:29:52;101394.94;;;-4.11;75.50
55757;BME280;41676;44.610;44.078;2023-02-13T19:34:52;101300.28;;;-4.80;75.59
55757;BME280;41676;44.610;44.078;2023-02-13T19:39:53;101304.75;;;-4.86;75.67
55757;BME280;41676;44.610;44.078;2023-02-13T19:44:54;101384.88;;;-4.48;75.54
55757;BME280;41676;44.610;44.078;2023-02-13T19:49:55;101388.63;;;-4.59;75.71
55757;BME280;41676;44.610;44.078;2023-02-13T19:54:55;101310.00;;;-5.17;75.86
55757;BME280;41676;44.610;44.078;2023-02-13T19:59:56;101396.13;;;-4.79;76.07
55757;BME280;41676;44.610;44.078;2023-02-13T20:05:01;101387.78;;;-4.89;76.04
55757;BME280;41676;44.610;44.078;2023-02-13T20:10:06;101376.41;;;-5.14;76.45
55757;BME280;41676;44.610;44.078;2023-02-13T20:15:09;101373.13;;;-5.21;76.19
55757;BME280;41676;44.610;44.078;2023-02-13T20:20:10;101336.78;;;-5.49;76.69
55757;BME280;41676;44.610;44.078;2023-02-13T20:25:11;101386.31;;;-5.30;76.94
55757;BME280;41676;44.610;44.078;2023-02-13T20:30:14;101357.53;;;-5.51;77.09
55757;BME280;41676;44.610;44.078;2023-02-13T20:35:15;101393.66;;;-5.46;76.94
55757;BME280;41676;44.610;44.078;2023-02-13T20:40:16;101380.28;;;-5.62;76.57
55757;BME280;41676;44.610;44.078;2023-02-13T20:45:17;101357.53;;;-5.83;77.47
55757;BME280;41676;44.610;44.078;2023-02-13T20:50:18;101367.09;;;-5.87;77.33
55757;BME280;41676;44.610;44.078;2023-02-13T20:55:19;101377.22;;;-5.78;77.25
55757;BME280;41676;44.610;44.078;2023-02-13T21:00:20;101279.50;;;-6.33;76.97
55757;BME280;41676;44.610;44.078;2023-02-13T21:05:21;101316.84;;;-6.11;77.13
55757;BME280;41676;44.610;44.078;2023-02-13T21:10:22;101343.19;;;-5.95;76.98
55757;BME280;41676;44.610;44.078;2023-02-13T21:15:22;101339.75;;;-5.95;77.27
55757;BME280;41676;44.610;44.078;2023-02-13T21:20:23;101359.38;;;-5.88;77.75
55757;BME280;41676;44.610;44.078;2023-02-13T21:25:24;101346.53;;;-5.91;77.21
55757;BME280;41676;44.610;44.078;2023-02-13T21:30:25;101360.91;;;-5.81;77.35
55757;BME280;41676;44.610;44.078;2023-02-13T21:35:26;101361.84;;;-5.84;77.48
55757;BME280;41676;44.610;44.078;2023-02-13T21:40:27;101337.31;;;-6.02;77.68
55757;BME280;41676;44.610;44.078;2023-02-13T21:45:27;101360.25;;;-5.89;77.85
55757;BME280;41676;44.610;44.078;2023-02-13T21:50:28;101343.94;;;-5.91;77.98
55757;BME280;41676;44.610;44.078;2023-02-13T21:55:29;101338.75;;;-5.91;78.55
55757;BME280;41676;44.610;44.078;2023-02-13T22:00:31;101331.06;;;-5.93;78.41
55757;BME280;41676;44.610;44.078;2023-02-13T22:05:32;101314.69;;;-5.93;78.36
55757;BME280;41676;44.610;44.078;2023-02-13T22:10:33;101276.09;;;-6.01;78.27
55757;BME280;41676;44.610;44.078;2023-02-13T22:15:34;101302.06;;;-5.73;78.54
55757;BME280;41676;44.610;44.078;2023-02-13T22:20:35;101313.75;;;-5.60;78.55
55757;BME280;41676;44.610;44.078;2023-02-13T22:25:36;101183.44;;;-6.20;78.39
55757;BME280;41676;44.610;44.078;2023-02-13T22:30:37;101276.16;;;-5.42;78.26
55757;BME280;41676;44.610;44.078;2023-02-13T22:35:38;101270.19;;;-5.14;78.56
55757;BME280;41676;44.610;44.078;2023-02-13T22:40:40;101300.31;;;-4.82;78.29
55757;BME280;41676;44.610;44.078;2023-02-13T22:45:40;101286.38;;;-4.78;78.44
55757;BME280;41676;44.610;44.078;2023-02-13T22:50:41;101273.22;;;-4.72;78.28
55757;BME280;41676;44.610;44.078;2023-02-13T22:55:42;101275.47;;;-4.61;78.11
55757;BME280;41676;44.610;44.078;2023-02-13T23:00:43;101273.59;;;-4.56;78.30
55757;BME280;41676;44.610;44.078;2023-02-13T23:05:44;101189.91;;;-4.88;78.16
55757;BME280;41676;44.610;44.078;2023-02-13T23:10:44;101219.88;;;-4.52;78.12
55757;BME280;41676;44.610;44.078;2023-02-13T23:16:12;101237.09;;;-4.25;78.13
55757;BME280;41676;44.610;44.078;2023-02-13T23:21:13;101169.06;;;-4.58;77.87
55757;BME280;41676;44.610;44.078;2023-02-13T23:26:14;101208.50;;;-4.22;78.25
55757;BME280;41676;44.610;44.078;2023-02-13T23:31:15;101243.97;;;-3.97;78.20
55757;BME280;41676;44.610;44.078;2023-02-13T23:36:16;101239.09;;;-3.81;77.82
55757;BME280;41676;44.610;44.078;2023-02-13T23:41:17;101139.72;;;-4.10;77.39
55757;BME280;41676;44.610;44.078;2023-02-13T23:46:17;101204.31;;;-3.54;77.10
55757;BME280;41676;44.610;44.078;2023-02-13T23:51:18;101148.56;;;-3.67;77.02
